Skip Navigation LinksHome page > Weather > Current weather Skip Navigation Links

Current Weather

San Diego Intl-Lindbergh Fld, San Diego

For information only: do not use for flight planning or navigation.
Latest weather
Observation time Monday, June 21, 2021 6:51 PM PDT
Local time Monday, June 21, 2021 7:13 PM PDT
Flight conditions Visual Meteorological Conditions
Winds
Wind direction West-Northwest (300°)
Winds variable from 280° to 340°
Wind speed 8 mph
Visibility 10 mi.
Sky condition
Ceiling unlimited
Cloud layer few clouds 1,300 ft.
Temperature 68°F
Dewpoint 58°F
Altimeter 29.96 in.Hg
Derived measurements
Relative humidity 70%
Density altitude 782 ft.
Sea-level pressure 29.96 in.Hg
Remarks
Automated weather observing station with precipitation discriminator.
METAR KSAN 220151Z 30007KT 280V340 10SM FEW013 20/14 A2996 RMK AO2 SLP144 T02000144

Settings

Location code

InnerDrive.Weather 4.0.6770.0 Release CLR 4.0.30319.42000
Copyright ©2018 Inner Drive Technology. All rights reserved. Portions Copyright ©1986-2018 David Braverman.

Find weather

Site navigation


Skip Navigation Links

Place info

Page info

PayPal - The safer, easier way to pay online!

Return home.

Copyright ©2021 Inner Drive Technology. Purveyors of fine, hand-crafted computer software. Page printed 2021-06-22T02:13:15 UTC.